Sacre-Coeur, Canada
Current Conditions -  °F | °C
As of 1:00 AM on Saturday 29 Nov 2014 (Local Time) from CYYY Reporting Station
Light Snow Light Snow  
Wind Chill:   Ceiling: 1800
Heat Index: 18°   Visibility: 10mi
Dew Point: 12°   Wind: 12mph
Humidity: 79%   Direction: 330°NNW
Pressure: 30.08"   Gusts: NA
Location:  48.43°N, 68.58°W
Report Text: CYYY 290600Z 33010KT 10SM -SN OVC018 M08/M11 A3008 RMK SC8 /S01/ SLP191
Loading
Personal Weather Stations






























Interactive Weather Map New forecast layout! Learn more

10-Day Weather Forecast

Advertisements
Track Severe Weather on mobile